sensor_id;sensor_type;location;lat;lon;timestamp;P1;durP1;ratioP1;P2;durP2;ratioP2
69417;SDS011;56610;48.872;2.400;2023-07-29T00:01:05;4.60;;;4.10;;
69417;SDS011;56610;48.872;2.400;2023-07-29T00:03:31;4.30;;;3.72;;
69417;SDS011;56610;48.872;2.400;2023-07-29T00:05:57;4.10;;;3.70;;
69417;SDS011;56610;48.872;2.400;2023-07-29T00:08:23;3.75;;;3.45;;
69417;SDS011;56610;48.872;2.400;2023-07-29T00:10:48;3.45;;;3.15;;
69417;SDS011;56610;48.872;2.400;2023-07-29T00:13:14;3.58;;;3.03;;
69417;SDS011;56610;48.872;2.400;2023-07-29T00:15:39;3.08;;;2.80;;
69417;SDS011;56610;48.872;2.400;2023-07-29T00:18:05;2.55;;;2.35;;
69417;SDS011;56610;48.872;2.400;2023-07-29T00:20:30;4.25;;;2.88;;
69417;SDS011;56610;48.872;2.400;2023-07-29T00:22:56;2.22;;;1.85;;
69417;SDS011;56610;48.872;2.400;2023-07-29T00:25:23;3.37;;;2.47;;
69417;SDS011;56610;48.872;2.400;2023-07-29T00:27:49;2.70;;;2.50;;
69417;SDS011;56610;48.872;2.400;2023-07-29T00:30:14;3.22;;;2.50;;
69417;SDS011;56610;48.872;2.400;2023-07-29T00:32:40;2.30;;;2.10;;
69417;SDS011;56610;48.872;2.400;2023-07-29T00:35:06;2.55;;;2.25;;
69417;SDS011;56610;48.872;2.400;2023-07-29T00:37:31;1.83;;;1.50;;
69417;SDS011;56610;48.872;2.400;2023-07-29T00:39:57;2.00;;;1.70;;
69417;SDS011;56610;48.872;2.400;2023-07-29T00:42:23;1.70;;;1.60;;
69417;SDS011;56610;48.872;2.400;2023-07-29T00:44:49;1.50;;;1.40;;
69417;SDS011;56610;48.872;2.400;2023-07-29T00:47:15;1.48;;;1.33;;
69417;SDS011;56610;48.872;2.400;2023-07-29T00:49:41;1.23;;;1.13;;
69417;SDS011;56610;48.872;2.400;2023-07-29T00:54:37;1.55;;;1.30;;
69417;SDS011;56610;48.872;2.400;2023-07-29T00:57:03;1.27;;;1.17;;
69417;SDS011;56610;48.872;2.400;2023-07-29T00:59:30;1.10;;;1.00;;
69417;SDS011;56610;48.872;2.400;2023-07-29T01:01:57;2.08;;;1.20;;
69417;SDS011;56610;48.872;2.400;2023-07-29T01:04:22;1.17;;;1.08;;
69417;SDS011;56610;48.872;2.400;2023-07-29T01:12:42;1.08;;;0.90;;
69417;SDS011;56610;48.872;2.400;2023-07-29T01:15:21;1.08;;;0.98;;
69417;SDS011;56610;48.872;2.400;2023-07-29T01:18:08;1.23;;;0.93;;
69417;SDS011;56610;48.872;2.400;2023-07-29T01:20:40;1.52;;;0.85;;
69417;SDS011;56610;48.872;2.400;2023-07-29T01:23:08;1.10;;;1.00;;
69417;SDS011;56610;48.872;2.400;2023-07-29T01:25:34;0.98;;;0.90;;
69417;SDS011;56610;48.872;2.400;2023-07-29T01:28:00;0.73;;;0.65;;
69417;SDS011;56610;48.872;2.400;2023-07-29T01:30:26;1.13;;;0.98;;
69417;SDS011;56610;48.872;2.400;2023-07-29T01:32:59;1.95;;;0.90;;
69417;SDS011;56610;48.872;2.400;2023-07-29T01:35:31;1.00;;;0.80;;
69417;SDS011;56610;48.872;2.400;2023-07-29T01:38:03;1.05;;;0.88;;
69417;SDS011;56610;48.872;2.400;2023-07-29T01:40:33;0.90;;;0.90;;
69417;SDS011;56610;48.872;2.400;2023-07-29T01:42:59;0.82;;;0.82;;
69417;SDS011;56610;48.872;2.400;2023-07-29T01:45:25;1.20;;;0.80;;
69417;SDS011;56610;48.872;2.400;2023-07-29T01:47:51;1.08;;;0.70;;
69417;SDS011;56610;48.872;2.400;2023-07-29T01:50:17;0.70;;;0.70;;
69417;SDS011;56610;48.872;2.400;2023-07-29T01:52:42;1.70;;;1.17;;
69417;SDS011;56610;48.872;2.400;2023-07-29T01:55:08;1.95;;;0.70;;
69417;SDS011;56610;48.872;2.400;2023-07-29T01:57:34;2.22;;;0.90;;
69417;SDS011;56610;48.872;2.400;2023-07-29T01:59:59;1.48;;;0.70;;
69417;SDS011;56610;48.872;2.400;2023-07-29T02:02:25;0.77;;;0.60;;
69417;SDS011;56610;48.872;2.400;2023-07-29T02:04:50;1.23;;;0.90;;
69417;SDS011;56610;48.872;2.400;2023-07-29T02:07:18;2.05;;;1.00;;
69417;SDS011;56610;48.872;2.400;2023-07-29T02:09:44;0.70;;;0.70;;
69417;SDS011;56610;48.872;2.400;2023-07-29T02:12:09;0.90;;;0.80;;
69417;SDS011;56610;48.872;2.400;2023-07-29T02:14:35;1.00;;;0.90;;
69417;SDS011;56610;48.872;2.400;2023-07-29T02:17:01;1.73;;;1.08;;
69417;SDS011;56610;48.872;2.400;2023-07-29T02:19:26;1.05;;;0.95;;
69417;SDS011;56610;48.872;2.400;2023-07-29T02:21:52;0.82;;;0.80;;
69417;SDS011;56610;48.872;2.400;2023-07-29T02:24:17;1.45;;;0.82;;
69417;SDS011;56610;48.872;2.400;2023-07-29T02:26:43;0.95;;;0.70;;
69417;SDS011;56610;48.872;2.400;2023-07-29T02:29:08;1.00;;;0.80;;
69417;SDS011;56610;48.872;2.400;2023-07-29T02:31:34;0.77;;;0.70;;
69417;SDS011;56610;48.872;2.400;2023-07-29T02:34:01;0.90;;;0.90;;
69417;SDS011;56610;48.872;2.400;2023-07-29T02:36:27;2.42;;;0.70;;
69417;SDS011;56610;48.872;2.400;2023-07-29T02:38:53;0.88;;;0.73;;
69417;SDS011;56610;48.872;2.400;2023-07-29T02:41:18;0.80;;;0.80;;
69417;SDS011;56610;48.872;2.400;2023-07-29T02:43:47;0.70;;;0.70;;
69417;SDS011;56610;48.872;2.400;2023-07-29T02:46:14;1.10;;;1.00;;
69417;SDS011;56610;48.872;2.400;2023-07-29T02:48:39;1.17;;;0.68;;
69417;SDS011;56610;48.872;2.400;2023-07-29T02:51:06;0.80;;;0.80;;
69417;SDS011;56610;48.872;2.400;2023-07-29T02:53:31;0.68;;;0.68;;
69417;SDS011;56610;48.872;2.400;2023-07-29T02:55:57;0.65;;;0.63;;
69417;SDS011;56610;48.872;2.400;2023-07-29T02:58:22;1.15;;;0.95;;
69417;SDS011;56610;48.872;2.400;2023-07-29T03:00:48;1.75;;;0.77;;
69417;SDS011;56610;48.872;2.400;2023-07-29T03:03:13;1.48;;;0.90;;
69417;SDS011;56610;48.872;2.400;2023-07-29T03:05:39;0.70;;;0.70;;
69417;SDS011;56610;48.872;2.400;2023-07-29T03:08:05;0.80;;;0.80;;
69417;SDS011;56610;48.872;2.400;2023-07-29T03:10:30;0.80;;;0.73;;
69417;SDS011;56610;48.872;2.400;2023-07-29T03:12:56;0.90;;;0.77;;
69417;SDS011;56610;48.872;2.400;2023-07-29T03:15:25;0.90;;;0.90;;
69417;SDS011;56610;48.872;2.400;2023-07-29T03:17:51;2.75;;;0.73;;
69417;SDS011;56610;48.872;2.400;2023-07-29T03:20:17;0.70;;;0.70;;
69417;SDS011;56610;48.872;2.400;2023-07-29T03:22:43;1.42;;;0.80;;
69417;SDS011;56610;48.872;2.400;2023-07-29T03:25:09;0.70;;;0.70;;
69417;SDS011;56610;48.872;2.400;2023-07-29T03:27:34;1.05;;;0.70;;
69417;SDS011;56610;48.872;2.400;2023-07-29T03:30:02;0.80;;;0.80;;
69417;SDS011;56610;48.872;2.400;2023-07-29T03:32:28;0.70;;;0.70;;
69417;SDS011;56610;48.872;2.400;2023-07-29T03:34:54;1.13;;;0.70;;
69417;SDS011;56610;48.872;2.400;2023-07-29T03:37:19;1.67;;;0.82;;
69417;SDS011;56610;48.872;2.400;2023-07-29T03:39:46;1.23;;;0.80;;
69417;SDS011;56610;48.872;2.400;2023-07-29T03:42:12;1.60;;;0.70;;
69417;SDS011;56610;48.872;2.400;2023-07-29T03:44:38;1.48;;;1.00;;
69417;SDS011;56610;48.872;2.400;2023-07-29T03:47:04;1.17;;;1.08;;
69417;SDS011;56610;48.872;2.400;2023-07-29T03:49:30;0.95;;;0.82;;
69417;SDS011;56610;48.872;2.400;2023-07-29T03:51:56;1.23;;;0.90;;
69417;SDS011;56610;48.872;2.400;2023-07-29T03:54:22;1.15;;;1.05;;
69417;SDS011;56610;48.872;2.400;2023-07-29T03:56:47;2.15;;;1.10;;
69417;SDS011;56610;48.872;2.400;2023-07-29T03:59:13;1.40;;;1.13;;
69417;SDS011;56610;48.872;2.400;2023-07-29T04:01:39;1.63;;;1.02;;
69417;SDS011;56610;48.872;2.400;2023-07-29T04:04:04;1.55;;;1.00;;
69417;SDS011;56610;48.872;2.400;2023-07-29T04:06:30;1.50;;;0.95;;
69417;SDS011;56610;48.872;2.400;2023-07-29T04:08:56;1.13;;;1.02;;
69417;SDS011;56610;48.872;2.400;2023-07-29T04:11:22;1.33;;;1.23;;
69417;SDS011;56610;48.872;2.400;2023-07-29T04:13:48;3.40;;;1.10;;
69417;SDS011;56610;48.872;2.400;2023-07-29T04:16:14;0.80;;;0.80;;
69417;SDS011;56610;48.872;2.400;2023-07-29T04:18:39;1.13;;;1.00;;
69417;SDS011;56610;48.872;2.400;2023-07-29T04:21:05;1.13;;;1.10;;
69417;SDS011;56610;48.872;2.400;2023-07-29T04:23:30;0.82;;;0.80;;
69417;SDS011;56610;48.872;2.400;2023-07-29T04:25:56;1.08;;;1.02;;
69417;SDS011;56610;48.872;2.400;2023-07-29T04:28:21;2.45;;;1.05;;
69417;SDS011;56610;48.872;2.400;2023-07-29T04:30:47;1.20;;;1.05;;
69417;SDS011;56610;48.872;2.400;2023-07-29T04:33:13;1.27;;;1.08;;
69417;SDS011;56610;48.872;2.400;2023-07-29T04:35:38;0.90;;;0.90;;
69417;SDS011;56610;48.872;2.400;2023-07-29T04:38:04;1.10;;;1.00;;
69417;SDS011;56610;48.872;2.400;2023-07-29T04:40:29;1.27;;;1.10;;
69417;SDS011;56610;48.872;2.400;2023-07-29T04:42:59;1.38;;;1.00;;
69417;SDS011;56610;48.872;2.400;2023-07-29T04:45:27;0.98;;;0.90;;
69417;SDS011;56610;48.872;2.400;2023-07-29T04:47:54;1.40;;;1.30;;
69417;SDS011;56610;48.872;2.400;2023-07-29T04:50:20;1.00;;;1.00;;
69417;SDS011;56610;48.872;2.400;2023-07-29T04:52:45;1.55;;;0.80;;
69417;SDS011;56610;48.872;2.400;2023-07-29T04:55:14;1.23;;;0.90;;
69417;SDS011;56610;48.872;2.400;2023-07-29T04:57:39;1.00;;;0.90;;
69417;SDS011;56610;48.872;2.400;2023-07-29T05:00:05;1.25;;;1.08;;
69417;SDS011;56610;48.872;2.400;2023-07-29T05:02:31;1.15;;;0.98;;
69417;SDS011;56610;48.872;2.400;2023-07-29T05:04:57;0.70;;;0.70;;
69417;SDS011;56610;48.872;2.400;2023-07-29T05:07:22;1.15;;;0.82;;
69417;SDS011;56610;48.872;2.400;2023-07-29T05:09:48;2.15;;;0.80;;
69417;SDS011;56610;48.872;2.400;2023-07-29T05:12:13;1.20;;;1.10;;
69417;SDS011;56610;48.872;2.400;2023-07-29T05:14:39;1.20;;;0.90;;
69417;SDS011;56610;48.872;2.400;2023-07-29T05:17:05;1.35;;;0.90;;
69417;SDS011;56610;48.872;2.400;2023-07-29T05:19:31;1.48;;;1.00;;
69417;SDS011;56610;48.872;2.400;2023-07-29T05:21:56;1.58;;;1.15;;
69417;SDS011;56610;48.872;2.400;2023-07-29T05:24:22;1.77;;;1.10;;
69417;SDS011;56610;48.872;2.400;2023-07-29T05:26:48;1.15;;;1.00;;
69417;SDS011;56610;48.872;2.400;2023-07-29T05:29:14;1.17;;;0.80;;
69417;SDS011;56610;48.872;2.400;2023-07-29T05:31:39;0.85;;;0.85;;
69417;SDS011;56610;48.872;2.400;2023-07-29T05:34:05;1.17;;;1.08;;
69417;SDS011;56610;48.872;2.400;2023-07-29T05:36:30;1.10;;;0.90;;
69417;SDS011;56610;48.872;2.400;2023-07-29T05:38:56;1.20;;;1.10;;
69417;SDS011;56610;48.872;2.400;2023-07-29T05:41:22;1.13;;;0.90;;
69417;SDS011;56610;48.872;2.400;2023-07-29T05:43:48;1.92;;;1.10;;
69417;SDS011;56610;48.872;2.400;2023-07-29T05:46:14;1.73;;;1.00;;
69417;SDS011;56610;48.872;2.400;2023-07-29T05:48:39;0.80;;;0.80;;
69417;SDS011;56610;48.872;2.400;2023-07-29T05:51:05;1.58;;;0.85;;
69417;SDS011;56610;48.872;2.400;2023-07-29T05:53:30;1.38;;;0.80;;
69417;SDS011;56610;48.872;2.400;2023-07-29T05:55:56;1.73;;;0.90;;
69417;SDS011;56610;48.872;2.400;2023-07-29T05:58:22;1.15;;;1.00;;
69417;SDS011;56610;48.872;2.400;2023-07-29T06:00:47;1.02;;;0.95;;
69417;SDS011;56610;48.872;2.400;2023-07-29T06:03:13;1.30;;;0.80;;
69417;SDS011;56610;48.872;2.400;2023-07-29T06:05:39;0.80;;;0.80;;
69417;SDS011;56610;48.872;2.400;2023-07-29T06:08:04;1.13;;;0.90;;
69417;SDS011;56610;48.872;2.400;2023-07-29T06:10:30;1.17;;;0.90;;
69417;SDS011;56610;48.872;2.400;2023-07-29T06:12:56;1.05;;;0.70;;
69417;SDS011;56610;48.872;2.400;2023-07-29T06:15:21;1.98;;;0.80;;
69417;SDS011;56610;48.872;2.400;2023-07-29T06:17:47;1.20;;;0.90;;
69417;SDS011;56610;48.872;2.400;2023-07-29T06:20:13;0.95;;;0.95;;
69417;SDS011;56610;48.872;2.400;2023-07-29T06:22:39;0.88;;;0.88;;
69417;SDS011;56610;48.872;2.400;2023-07-29T06:25:05;0.70;;;0.70;;
69417;SDS011;56610;48.872;2.400;2023-07-29T06:27:31;0.93;;;0.68;;
69417;SDS011;56610;48.872;2.400;2023-07-29T06:29:57;2.75;;;0.80;;
69417;SDS011;56610;48.872;2.400;2023-07-29T06:32:22;1.05;;;0.95;;
69417;SDS011;56610;48.872;2.400;2023-07-29T06:34:48;0.70;;;0.63;;
69417;SDS011;56610;48.872;2.400;2023-07-29T06:37:13;0.70;;;0.70;;
69417;SDS011;56610;48.872;2.400;2023-07-29T06:39:39;0.70;;;0.70;;
69417;SDS011;56610;48.872;2.400;2023-07-29T06:42:05;0.85;;;0.70;;
69417;SDS011;56610;48.872;2.400;2023-07-29T06:44:31;0.80;;;0.80;;
69417;SDS011;56610;48.872;2.400;2023-07-29T06:46:57;1.50;;;0.80;;
69417;SDS011;56610;48.872;2.400;2023-07-29T06:49:23;0.55;;;0.55;;
69417;SDS011;56610;48.872;2.400;2023-07-29T06:51:49;4.88;;;0.82;;
69417;SDS011;56610;48.872;2.400;2023-07-29T06:54:15;1.05;;;0.70;;
69417;SDS011;56610;48.872;2.400;2023-07-29T06:56:42;0.93;;;0.65;;
69417;SDS011;56610;48.872;2.400;2023-07-29T06:59:08;0.50;;;0.50;;
69417;SDS011;56610;48.872;2.400;2023-07-29T07:01:34;1.60;;;1.50;;
69417;SDS011;56610;48.872;2.400;2023-07-29T07:03:59;0.57;;;0.57;;
69417;SDS011;56610;48.872;2.400;2023-07-29T07:06:25;0.50;;;0.50;;
69417;SDS011;56610;48.872;2.400;2023-07-29T07:08:51;2.33;;;0.85;;
69417;SDS011;56610;48.872;2.400;2023-07-29T07:11:17;1.60;;;0.70;;
69417;SDS011;56610;48.872;2.400;2023-07-29T07:13:43;0.47;;;0.47;;
69417;SDS011;56610;48.872;2.400;2023-07-29T07:16:09;0.50;;;0.50;;
69417;SDS011;56610;48.872;2.400;2023-07-29T07:18:34;0.90;;;0.50;;
69417;SDS011;56610;48.872;2.400;2023-07-29T07:21:00;0.52;;;0.50;;
69417;SDS011;56610;48.872;2.400;2023-07-29T07:23:26;0.88;;;0.60;;
69417;SDS011;56610;48.872;2.400;2023-07-29T07:25:51;0.55;;;0.55;;
69417;SDS011;56610;48.872;2.400;2023-07-29T07:28:17;0.57;;;0.57;;
69417;SDS011;56610;48.872;2.400;2023-07-29T07:30:42;0.77;;;0.70;;
69417;SDS011;56610;48.872;2.400;2023-07-29T07:33:08;1.80;;;0.85;;
69417;SDS011;56610;48.872;2.400;2023-07-29T07:35:34;0.77;;;0.60;;
69417;SDS011;56610;48.872;2.400;2023-07-29T07:37:59;0.73;;;0.60;;
69417;SDS011;56610;48.872;2.400;2023-07-29T07:40:27;0.40;;;0.40;;
69417;SDS011;56610;48.872;2.400;2023-07-29T07:42:53;0.50;;;0.50;;
69417;SDS011;56610;48.872;2.400;2023-07-29T07:45:18;1.23;;;0.40;;
69417;SDS011;56610;48.872;2.400;2023-07-29T07:47:44;0.73;;;0.55;;
69417;SDS011;56610;48.872;2.400;2023-07-29T07:50:10;0.43;;;0.40;;
69417;SDS011;56610;48.872;2.400;2023-07-29T07:52:35;0.35;;;0.32;;
69417;SDS011;56610;48.872;2.400;2023-07-29T07:55:01;0.52;;;0.52;;
69417;SDS011;56610;48.872;2.400;2023-07-29T07:57:27;0.50;;;0.50;;
69417;SDS011;56610;48.872;2.400;2023-07-29T07:59:52;0.52;;;0.50;;
69417;SDS011;56610;48.872;2.400;2023-07-29T08:02:18;1.40;;;0.40;;
69417;SDS011;56610;48.872;2.400;2023-07-29T08:04:45;0.40;;;0.40;;
69417;SDS011;56610;48.872;2.400;2023-07-29T08:07:10;0.40;;;0.40;;
69417;SDS011;56610;48.872;2.400;2023-07-29T08:09:36;0.50;;;0.50;;
69417;SDS011;56610;48.872;2.400;2023-07-29T08:12:02;0.50;;;0.50;;
69417;SDS011;56610;48.872;2.400;2023-07-29T08:14:27;0.45;;;0.45;;
69417;SDS011;56610;48.872;2.400;2023-07-29T08:16:53;0.70;;;0.50;;
69417;SDS011;56610;48.872;2.400;2023-07-29T08:19:18;0.70;;;0.50;;
69417;SDS011;56610;48.872;2.400;2023-07-29T08:21:44;0.80;;;0.47;;
69417;SDS011;56610;48.872;2.400;2023-07-29T08:24:09;0.30;;;0.30;;
69417;SDS011;56610;48.872;2.400;2023-07-29T08:26:35;0.50;;;0.50;;
69417;SDS011;56610;48.872;2.400;2023-07-29T08:29:00;0.47;;;0.47;;
69417;SDS011;56610;48.872;2.400;2023-07-29T08:31:26;0.55;;;0.55;;
69417;SDS011;56610;48.872;2.400;2023-07-29T08:33:52;0.68;;;0.50;;
69417;SDS011;56610;48.872;2.400;2023-07-29T08:36:17;1.25;;;0.63;;
69417;SDS011;56610;48.872;2.400;2023-07-29T08:38:43;0.50;;;0.50;;
69417;SDS011;56610;48.872;2.400;2023-07-29T08:43:59;0.93;;;0.50;;
69417;SDS011;56610;48.872;2.400;2023-07-29T08:46:34;0.95;;;0.65;;
69417;SDS011;56610;48.872;2.400;2023-07-29T08:49:00;1.15;;;0.57;;
69417;SDS011;56610;48.872;2.400;2023-07-29T08:51:27;0.60;;;0.60;;
69417;SDS011;56610;48.872;2.400;2023-07-29T08:53:54;1.38;;;0.80;;
69417;SDS011;56610;48.872;2.400;2023-07-29T08:56:20;0.60;;;0.60;;
69417;SDS011;56610;48.872;2.400;2023-07-29T08:58:46;1.05;;;0.70;;
69417;SDS011;56610;48.872;2.400;2023-07-29T09:01:12;0.60;;;0.50;;
69417;SDS011;56610;48.872;2.400;2023-07-29T09:03:38;0.68;;;0.68;;
69417;SDS011;56610;48.872;2.400;2023-07-29T09:06:06;0.60;;;0.60;;
69417;SDS011;56610;48.872;2.400;2023-07-29T09:08:32;0.60;;;0.60;;
69417;SDS011;56610;48.872;2.400;2023-07-29T09:10:59;0.47;;;0.47;;
69417;SDS011;56610;48.872;2.400;2023-07-29T09:13:25;0.85;;;0.70;;
69417;SDS011;56610;48.872;2.400;2023-07-29T09:15:54;0.80;;;0.50;;
69417;SDS011;56610;48.872;2.400;2023-07-29T09:18:21;3.25;;;0.80;;
69417;SDS011;56610;48.872;2.400;2023-07-29T09:20:47;2.05;;;0.60;;
69417;SDS011;56610;48.872;2.400;2023-07-29T09:23:13;0.50;;;0.50;;
69417;SDS011;56610;48.872;2.400;2023-07-29T09:25:39;0.95;;;0.60;;
69417;SDS011;56610;48.872;2.400;2023-07-29T09:28:12;1.90;;;0.80;;
69417;SDS011;56610;48.872;2.400;2023-07-29T09:30:42;1.00;;;0.70;;
69417;SDS011;56610;48.872;2.400;2023-07-29T09:33:10;0.90;;;0.90;;
69417;SDS011;56610;48.872;2.400;2023-07-29T09:35:36;2.03;;;0.77;;
69417;SDS011;56610;48.872;2.400;2023-07-29T09:38:04;1.27;;;0.60;;
69417;SDS011;56610;48.872;2.400;2023-07-29T09:40:40;0.77;;;0.68;;
69417;SDS011;56610;48.872;2.400;2023-07-29T09:43:06;1.30;;;0.90;;
69417;SDS011;56610;48.872;2.400;2023-07-29T09:45:35;0.77;;;0.73;;
69417;SDS011;56610;48.872;2.400;2023-07-29T09:48:03;0.70;;;0.70;;
69417;SDS011;56610;48.872;2.400;2023-07-29T09:50:34;0.82;;;0.82;;
69417;SDS011;56610;48.872;2.400;2023-07-29T09:53:01;0.60;;;0.60;;
69417;SDS011;56610;48.872;2.400;2023-07-29T09:55:28;0.60;;;0.60;;
69417;SDS011;56610;48.872;2.400;2023-07-29T09:57:57;0.80;;;0.77;;
69417;SDS011;56610;48.872;2.400;2023-07-29T10:00:26;0.80;;;0.70;;
69417;SDS011;56610;48.872;2.400;2023-07-29T10:02:56;1.40;;;0.93;;
69417;SDS011;56610;48.872;2.400;2023-07-29T10:05:22;1.35;;;0.90;;
69417;SDS011;56610;48.872;2.400;2023-07-29T10:10:16;1.48;;;0.90;;
69417;SDS011;56610;48.872;2.400;2023-07-29T10:12:42;1.10;;;1.00;;
69417;SDS011;56610;48.872;2.400;2023-07-29T10:15:08;1.48;;;1.10;;
69417;SDS011;56610;48.872;2.400;2023-07-29T10:17:36;1.33;;;0.90;;
69417;SDS011;56610;48.872;2.400;2023-07-29T10:20:05;1.35;;;0.95;;
69417;SDS011;56610;48.872;2.400;2023-07-29T10:22:33;1.10;;;1.10;;
69417;SDS011;56610;48.872;2.400;2023-07-29T10:25:04;1.10;;;1.00;;
69417;SDS011;56610;48.872;2.400;2023-07-29T10:27:51;1.23;;;1.13;;
69417;SDS011;56610;48.872;2.400;2023-07-29T10:30:20;0.90;;;0.85;;
69417;SDS011;56610;48.872;2.400;2023-07-29T10:32:46;1.10;;;1.00;;
69417;SDS011;56610;48.872;2.400;2023-07-29T10:35:14;0.88;;;0.88;;
69417;SDS011;56610;48.872;2.400;2023-07-29T10:37:40;1.10;;;1.10;;
69417;SDS011;56610;48.872;2.400;2023-07-29T10:40:07;1.88;;;1.30;;
69417;SDS011;56610;48.872;2.400;2023-07-29T10:42:35;1.42;;;1.30;;
69417;SDS011;56610;48.872;2.400;2023-07-29T10:45:17;1.20;;;1.10;;
69417;SDS011;56610;48.872;2.400;2023-07-29T10:47:46;1.20;;;1.10;;
69417;SDS011;56610;48.872;2.400;2023-07-29T10:50:19;2.10;;;1.40;;
69417;SDS011;56610;48.872;2.400;2023-07-29T10:52:50;1.25;;;1.15;;
69417;SDS011;56610;48.872;2.400;2023-07-29T10:55:27;1.08;;;1.08;;
69417;SDS011;56610;48.872;2.400;2023-07-29T10:58:05;1.48;;;1.00;;
69417;SDS011;56610;48.872;2.400;2023-07-29T11:00:36;1.88;;;1.52;;
69417;SDS011;56610;48.872;2.400;2023-07-29T11:03:04;1.98;;;1.42;;
69417;SDS011;56610;48.872;2.400;2023-07-29T11:05:50;1.75;;;1.27;;
69417;SDS011;56610;48.872;2.400;2023-07-29T11:08:17;2.03;;;1.20;;
69417;SDS011;56610;48.872;2.400;2023-07-29T11:10:44;1.52;;;1.40;;
69417;SDS011;56610;48.872;2.400;2023-07-29T11:13:28;1.27;;;1.27;;
69417;SDS011;56610;48.872;2.400;2023-07-29T11:15:55;1.30;;;1.20;;
69417;SDS011;56610;48.872;2.400;2023-07-29T11:18:24;1.75;;;1.40;;
69417;SDS011;56610;48.872;2.400;2023-07-29T11:20:53;2.00;;;1.33;;
69417;SDS011;56610;48.872;2.400;2023-07-29T11:23:20;1.90;;;1.40;;
69417;SDS011;56610;48.872;2.400;2023-07-29T11:25:51;2.20;;;1.15;;
69417;SDS011;56610;48.872;2.400;2023-07-29T11:28:17;1.83;;;1.38;;
69417;SDS011;56610;48.872;2.400;2023-07-29T11:30:43;2.00;;;1.33;;
69417;SDS011;56610;48.872;2.400;2023-07-29T11:33:08;1.10;;;1.00;;
69417;SDS011;56610;48.872;2.400;2023-07-29T11:35:36;1.17;;;1.08;;
69417;SDS011;56610;48.872;2.400;2023-07-29T11:38:02;1.95;;;1.20;;
69417;SDS011;56610;48.872;2.400;2023-07-29T11:40:28;1.00;;;0.90;;
69417;SDS011;56610;48.872;2.400;2023-07-29T11:42:54;1.08;;;0.98;;
69417;SDS011;56610;48.872;2.400;2023-07-29T11:45:20;1.10;;;1.00;;
69417;SDS011;56610;48.872;2.400;2023-07-29T11:47:46;1.67;;;1.00;;
69417;SDS011;56610;48.872;2.400;2023-07-29T11:50:13;2.25;;;0.90;;
69417;SDS011;56610;48.872;2.400;2023-07-29T11:52:40;1.35;;;1.00;;
69417;SDS011;56610;48.872;2.400;2023-07-29T11:55:08;1.10;;;1.00;;
69417;SDS011;56610;48.872;2.400;2023-07-29T11:57:35;0.95;;;0.80;;
69417;SDS011;56610;48.872;2.400;2023-07-29T12:00:02;1.58;;;0.88;;
69417;SDS011;56610;48.872;2.400;2023-07-29T12:02:31;0.95;;;0.85;;
69417;SDS011;56610;48.872;2.400;2023-07-29T12:04:58;1.40;;;1.00;;
69417;SDS011;56610;48.872;2.400;2023-07-29T12:07:24;1.92;;;1.00;;
69417;SDS011;56610;48.872;2.400;2023-07-29T12:09:50;1.25;;;0.93;;
69417;SDS011;56610;48.872;2.400;2023-07-29T12:12:17;1.73;;;1.00;;
69417;SDS011;56610;48.872;2.400;2023-07-29T12:14:43;1.98;;;1.05;;
69417;SDS011;56610;48.872;2.400;2023-07-29T12:19:37;1.20;;;0.93;;
69417;SDS011;56610;48.872;2.400;2023-07-29T12:22:04;1.20;;;1.00;;
69417;SDS011;56610;48.872;2.400;2023-07-29T12:24:31;1.15;;;0.90;;
69417;SDS011;56610;48.872;2.400;2023-07-29T12:26:58;1.70;;;1.20;;
69417;SDS011;56610;48.872;2.400;2023-07-29T12:29:24;2.05;;;1.10;;
69417;SDS011;56610;48.872;2.400;2023-07-29T12:31:56;1.65;;;1.08;;
69417;SDS011;56610;48.872;2.400;2023-07-29T12:34:27;1.80;;;1.35;;
69417;SDS011;56610;48.872;2.400;2023-07-29T12:36:54;1.30;;;1.20;;
69417;SDS011;56610;48.872;2.400;2023-07-29T12:41:48;1.52;;;1.00;;
69417;SDS011;56610;48.872;2.400;2023-07-29T12:44:14;2.03;;;0.90;;
69417;SDS011;56610;48.872;2.400;2023-07-29T12:46:40;1.80;;;1.13;;
69417;SDS011;56610;48.872;2.400;2023-07-29T12:49:06;1.10;;;1.00;;
69417;SDS011;56610;48.872;2.400;2023-07-29T12:51:32;1.20;;;0.90;;
69417;SDS011;56610;48.872;2.400;2023-07-29T12:53:58;1.00;;;1.00;;
69417;SDS011;56610;48.872;2.400;2023-07-29T12:56:23;1.77;;;1.30;;
69417;SDS011;56610;48.872;2.400;2023-07-29T12:58:49;0.95;;;0.80;;
69417;SDS011;56610;48.872;2.400;2023-07-29T13:01:14;2.15;;;1.15;;
69417;SDS011;56610;48.872;2.400;2023-07-29T13:03:42;1.98;;;1.23;;
69417;SDS011;56610;48.872;2.400;2023-07-29T13:06:08;2.15;;;1.48;;
69417;SDS011;56610;48.872;2.400;2023-07-29T13:08:34;1.50;;;0.98;;
69417;SDS011;56610;48.872;2.400;2023-07-29T13:10:59;1.83;;;1.05;;
69417;SDS011;56610;48.872;2.400;2023-07-29T13:13:25;1.13;;;1.02;;
69417;SDS011;56610;48.872;2.400;2023-07-29T13:15:50;1.38;;;1.10;;
69417;SDS011;56610;48.872;2.400;2023-07-29T13:18:17;1.27;;;0.90;;
69417;SDS011;56610;48.872;2.400;2023-07-29T13:20:43;2.92;;;0.90;;
69417;SDS011;56610;48.872;2.400;2023-07-29T13:23:08;0.90;;;0.80;;
69417;SDS011;56610;48.872;2.400;2023-07-29T13:25:34;2.22;;;1.00;;
69417;SDS011;56610;48.872;2.400;2023-07-29T13:28:00;0.80;;;0.80;;
69417;SDS011;56610;48.872;2.400;2023-07-29T13:30:25;1.13;;;0.77;;
69417;SDS011;56610;48.872;2.400;2023-07-29T13:32:51;1.70;;;0.90;;
69417;SDS011;56610;48.872;2.400;2023-07-29T13:35:16;1.52;;;0.90;;
69417;SDS011;56610;48.872;2.400;2023-07-29T13:37:42;1.35;;;0.90;;
69417;SDS011;56610;48.872;2.400;2023-07-29T13:40:07;1.13;;;0.90;;
69417;SDS011;56610;48.872;2.400;2023-07-29T13:42:33;0.88;;;0.85;;
69417;SDS011;56610;48.872;2.400;2023-07-29T13:44:59;1.13;;;0.93;;
69417;SDS011;56610;48.872;2.400;2023-07-29T13:47:25;0.85;;;0.85;;
69417;SDS011;56610;48.872;2.400;2023-07-29T13:49:54;1.15;;;1.02;;
69417;SDS011;56610;48.872;2.400;2023-07-29T13:52:19;0.80;;;0.80;;
69417;SDS011;56610;48.872;2.400;2023-07-29T13:54:45;1.20;;;1.10;;
69417;SDS011;56610;48.872;2.400;2023-07-29T13:57:10;1.10;;;1.00;;
69417;SDS011;56610;48.872;2.400;2023-07-29T13:59:36;0.88;;;0.88;;
69417;SDS011;56610;48.872;2.400;2023-07-29T14:02:05;1.52;;;0.88;;
69417;SDS011;56610;48.872;2.400;2023-07-29T14:04:31;2.35;;;0.98;;
69417;SDS011;56610;48.872;2.400;2023-07-29T14:06:57;0.98;;;0.88;;
69417;SDS011;56610;48.872;2.400;2023-07-29T14:09:23;1.15;;;0.90;;
69417;SDS011;56610;48.872;2.400;2023-07-29T14:11:49;1.00;;;0.90;;
69417;SDS011;56610;48.872;2.400;2023-07-29T14:14:14;0.90;;;0.90;;
69417;SDS011;56610;48.872;2.400;2023-07-29T14:16:40;1.17;;;0.77;;
69417;SDS011;56610;48.872;2.400;2023-07-29T14:19:06;0.82;;;0.82;;
69417;SDS011;56610;48.872;2.400;2023-07-29T14:21:31;0.75;;;0.75;;
69417;SDS011;56610;48.872;2.400;2023-07-29T14:23:57;0.65;;;0.65;;
69417;SDS011;56610;48.872;2.400;2023-07-29T14:26:22;0.85;;;0.73;;
69417;SDS011;56610;48.872;2.400;2023-07-29T14:28:48;0.80;;;0.80;;
69417;SDS011;56610;48.872;2.400;2023-07-29T14:31:14;0.95;;;0.90;;
69417;SDS011;56610;48.872;2.400;2023-07-29T14:33:41;1.33;;;0.80;;
69417;SDS011;56610;48.872;2.400;2023-07-29T14:36:10;0.85;;;0.80;;
69417;SDS011;56610;48.872;2.400;2023-07-29T14:38:36;1.08;;;0.68;;
69417;SDS011;56610;48.872;2.400;2023-07-29T14:41:02;1.45;;;0.80;;
69417;SDS011;56610;48.872;2.400;2023-07-29T14:43:28;0.57;;;0.57;;
69417;SDS011;56610;48.872;2.400;2023-07-29T14:45:55;0.83;;;0.77;;
69417;SDS011;56610;48.872;2.400;2023-07-29T14:48:21;1.20;;;0.90;;
69417;SDS011;56610;48.872;2.400;2023-07-29T14:50:46;1.20;;;0.70;;
69417;SDS011;56610;48.872;2.400;2023-07-29T14:53:12;1.55;;;0.88;;
69417;SDS011;56610;48.872;2.400;2023-07-29T14:55:38;1.23;;;1.00;;
69417;SDS011;56610;48.872;2.400;2023-07-29T14:58:03;1.55;;;0.95;;
69417;SDS011;56610;48.872;2.400;2023-07-29T15:00:29;0.95;;;0.70;;
69417;SDS011;56610;48.872;2.400;2023-07-29T15:02:54;0.85;;;0.82;;